Time;durP1;ratioP1;P1;durP2;ratioP2;P2;SDS_P1;SDS_P2;PMS_P1;PMS_P2;Temp;Humidity;BMP_temperature;BMP_pressure;BME280_temperature;BME280_humidity;BME280_pressure;Samples;Min_cycle;Max_cycle;Signal;HPM_P1;HPM_P2
2023/09/12 00:00:54;;;;;;;14.95;10.18;;;24.60;67.70;;;;;;5114020;28;20027;-82
2023/09/12 00:03:22;;;;;;;15.45;10.05;;;24.70;67.70;;;;;;5113723;28;20107;-82
2023/09/12 00:05:54;;;;;;;13.82;9.73;;;24.70;67.70;;;;;;5116345;22;20419;-82
2023/09/12 00:08:20;;;;;;;12.48;9.60;;;24.70;67.00;;;;;;5095057;28;20028;-81
2023/09/12 00:10:46;;;;;;;14.23;10.10;;;24.70;67.90;;;;;;5093679;28;20185;-81
2023/09/12 00:13:12;;;;;;;12.27;9.63;;;24.60;67.70;;;;;;5093105;28;20478;-82
2023/09/12 00:15:37;;;;;;;14.65;10.13;;;24.60;67.90;;;;;;5093055;28;20368;-82
2023/09/12 00:18:04;;;;;;;12.68;9.68;;;24.60;67.70;;;;;;5092878;28;20487;-81
2023/09/12 00:20:29;;;;;;;15.68;10.38;;;24.60;67.50;;;;;;5074841;28;20394;-81
2023/09/12 00:22:56;;;;;;;18.95;10.85;;;24.50;67.90;;;;;;5075034;28;20028;-82
2023/09/12 00:25:21;;;;;;;16.50;10.68;;;24.50;68.30;;;;;;5075162;28;20117;-81
2023/09/12 00:27:47;;;;;;;14.18;9.60;;;24.50;68.30;;;;;;5092994;28;20111;-81
2023/09/12 00:30:16;;;;;;;18.13;10.18;;;24.50;68.50;;;;;;5095079;28;20036;-83
2023/09/12 00:32:42;;;;;;;15.18;9.25;;;24.50;68.10;;;;;;5074497;28;20032;-83
2023/09/12 00:35:08;;;;;;;14.95;10.02;;;24.50;68.20;;;;;;5093200;28;20039;-82
2023/09/12 00:37:33;;;;;;;15.55;10.07;;;24.40;67.70;;;;;;5105361;28;20035;-81
2023/09/12 00:39:59;;;;;;;15.45;10.27;;;24.40;67.60;;;;;;5103535;28;20028;-83
2023/09/12 00:42:26;;;;;;;13.07;9.23;;;24.40;67.60;;;;;;5092957;28;20032;-82
2023/09/12 00:44:52;;;;;;;14.65;9.52;;;24.40;67.40;;;;;;5092833;28;20085;-82
2023/09/12 00:47:18;;;;;;;20.00;9.52;;;24.30;67.00;;;;;;5074479;28;20032;-83
2023/09/12 00:49:45;;;;;;;17.05;10.48;;;24.30;66.60;;;;;;5092818;28;20058;-82
2023/09/12 00:52:12;;;;;;;12.25;8.65;;;24.30;66.80;;;;;;5092865;28;20495;-81
2023/09/12 00:54:38;;;;;;;17.45;9.80;;;24.30;66.50;;;;;;5094338;28;20028;-82
2023/09/12 00:57:04;;;;;;;15.95;10.15;;;24.20;66.30;;;;;;5075057;28;20032;-82
2023/09/12 00:59:29;;;;;;;16.67;9.90;;;24.20;66.40;;;;;;5092595;28;20508;-82
2023/09/12 01:01:56;;;;;;;15.40;9.77;;;24.10;66.30;;;;;;5093436;28;20028;-82
2023/09/12 01:04:22;;;;;;;17.30;10.00;;;24.20;66.20;;;;;;5097171;28;20034;-83
2023/09/12 01:06:48;;;;;;;18.98;10.02;;;24.10;66.10;;;;;;5078879;28;20407;-83
2023/09/12 01:09:14;;;;;;;15.77;9.48;;;24.10;65.90;;;;;;5076222;28;20057;-82
2023/09/12 01:11:41;;;;;;;15.55;9.80;;;24.00;65.90;;;;;;5078711;28;20107;-83
2023/09/12 01:14:06;;;;;;;17.25;9.68;;;24.00;65.90;;;;;;5063054;28;20036;-81
2023/09/12 01:16:32;;;;;;;13.43;9.30;;;24.00;65.70;;;;;;5072150;28;20372;-81
2023/09/12 01:18:58;;;;;;;16.50;10.23;;;24.00;65.60;;;;;;5071850;28;20079;-82
2023/09/12 01:21:39;;;;;;;15.02;9.52;;;23.90;65.50;;;;;;5071919;28;20498;-82
2023/09/12 01:24:25;;;;;;;13.30;9.05;;;23.80;64.90;;;;;;5072249;28;20033;-82
2023/09/12 01:27:12;;;;;;;15.77;9.93;;;23.80;64.80;;;;;;5071667;28;20049;-83
2023/09/12 01:29:38;;;;;;;19.10;9.90;;;23.80;64.80;;;;;;5072083;28;20036;-83
2023/09/12 01:32:05;;;;;;;15.68;9.80;;;23.80;65.20;;;;;;5072082;28;20040;-80
2023/09/12 01:34:30;;;;;;;15.85;9.10;;;23.70;64.90;;;;;;5071721;28;20029;-81
2023/09/12 01:36:56;;;;;;;14.38;9.70;;;23.80;65.00;;;;;;5071751;28;20163;-81
2023/09/12 01:39:22;;;;;;;16.15;9.30;;;23.70;64.60;;;;;;5071660;28;20143;-81
2023/09/12 01:41:49;;;;;;;15.55;8.85;;;23.80;64.50;;;;;;5071873;28;20040;-82
2023/09/12 01:44:15;;;;;;;15.18;9.45;;;23.80;64.40;;;;;;5072681;28;20114;-82
2023/09/12 01:46:42;;;;;;;13.85;9.25;;;23.80;64.00;;;;;;5071981;28;20044;-82
2023/09/12 01:49:10;;;;;;;13.60;9.55;;;23.80;63.90;;;;;;5079743;28;20113;-82
2023/09/12 01:51:36;;;;;;;16.02;9.20;;;23.70;63.90;;;;;;5072299;28;20065;-82
2023/09/12 01:54:03;;;;;;;15.93;9.43;;;23.60;63.90;;;;;;5072036;28;20037;-83
2023/09/12 01:56:30;;;;;;;21.13;10.07;;;23.60;63.90;;;;;;5072547;28;20083;-82
2023/09/12 01:58:56;;;;;;;15.18;8.88;;;23.60;64.00;;;;;;5071670;28;20391;-82
2023/09/12 02:01:22;;;;;;;16.58;9.35;;;23.50;63.80;;;;;;5071504;28;20031;-81
2023/09/12 02:03:48;;;;;;;14.88;8.30;;;23.50;63.80;;;;;;5071742;28;20404;-82
2023/09/12 02:06:13;;;;;;;13.15;8.50;;;23.50;63.80;;;;;;5085864;28;20048;-81
2023/09/12 02:08:39;;;;;;;15.88;8.43;;;23.50;63.70;;;;;;5111855;28;20043;-82
2023/09/12 02:11:05;;;;;;;15.30;9.05;;;23.50;63.80;;;;;;5112785;28;20059;-82
2023/09/12 02:13:30;;;;;;;12.80;8.48;;;23.50;63.80;;;;;;5114392;28;20471;-82
2023/09/12 02:16:00;;;;;;;11.55;8.48;;;23.40;63.40;;;;;;5095049;28;20056;-82
2023/09/12 02:18:26;;;;;;;16.38;8.60;;;23.30;63.60;;;;;;5112123;28;20055;-82
2023/09/12 02:20:52;;;;;;;13.38;8.48;;;23.30;63.50;;;;;;5118475;28;20054;-81
2023/09/12 02:23:17;;;;;;;12.07;8.68;;;23.30;63.30;;;;;;5116137;28;20107;-83
2023/09/12 02:25:43;;;;;;;16.17;8.45;;;23.20;63.20;;;;;;5115570;28;20051;-82
2023/09/12 02:28:09;;;;;;;12.88;8.55;;;23.30;63.30;;;;;;5097105;28;20032;-82
2023/09/12 02:30:37;;;;;;;14.00;8.60;;;23.30;63.10;;;;;;5115189;28;20032;-83
2023/09/12 02:33:03;;;;;;;10.98;7.93;;;23.30;63.00;;;;;;5115609;28;20035;-81
2023/09/12 02:35:29;;;;;;;13.07;7.82;;;23.30;62.80;;;;;;5115674;28;20085;-83
2023/09/12 02:37:54;;;;;;;17.42;8.30;;;23.30;62.80;;;;;;5097334;28;20031;-82
2023/09/12 02:40:20;;;;;;;13.70;7.50;;;23.30;62.60;;;;;;5115456;28;20446;-82
2023/09/12 02:42:46;;;;;;;11.45;7.70;;;23.30;62.70;;;;;;5115383;28;20036;-82
2023/09/12 02:45:11;;;;;;;14.30;8.15;;;23.30;62.60;;;;;;5117037;28;20096;-82
2023/09/12 02:47:37;;;;;;;12.45;7.68;;;23.30;62.70;;;;;;5115332;28;20051;-82
2023/09/12 02:50:03;;;;;;;11.10;7.60;;;23.20;62.70;;;;;;5115481;28;20039;-82
2023/09/12 02:52:29;;;;;;;14.95;8.20;;;23.20;62.70;;;;;;5115209;28;20043;-80
2023/09/12 02:54:55;;;;;;;10.55;7.80;;;23.20;62.80;;;;;;5115190;28;20111;-81
2023/09/12 02:57:21;;;;;;;14.18;7.53;;;23.20;62.90;;;;;;5115028;28;20042;-81
2023/09/12 02:59:47;;;;;;;14.18;7.85;;;23.10;62.90;;;;;;5115916;28;20504;-81
2023/09/12 03:02:13;;;;;;;9.75;7.75;;;23.10;62.60;;;;;;5115242;28;20069;-82
2023/09/12 03:04:38;;;;;;;10.80;7.75;;;23.10;62.70;;;;;;5114794;28;20076;-81
2023/09/12 03:07:04;;;;;;;13.98;8.70;;;23.10;62.70;;;;;;5115697;28;20122;-80
2023/09/12 03:09:30;;;;;;;16.83;9.05;;;23.10;62.80;;;;;;5097095;28;20028;-81
2023/09/12 03:11:55;;;;;;;12.23;8.52;;;23.10;63.10;;;;;;5114961;28;20520;-81
2023/09/12 03:14:21;;;;;;;11.93;7.85;;;23.00;63.00;;;;;;5115863;28;20028;-82
2023/09/12 03:16:47;;;;;;;12.57;8.55;;;23.00;63.20;;;;;;5096297;28;20039;-81
2023/09/12 03:19:12;;;;;;;10.98;8.68;;;23.00;63.20;;;;;;5114861;28;20397;-81
2023/09/12 03:21:38;;;;;;;12.27;7.47;;;23.00;63.10;;;;;;5116372;28;20031;-83
2023/09/12 03:24:04;;;;;;;10.70;7.70;;;23.00;63.20;;;;;;5098231;28;20046;-82
2023/09/12 03:26:30;;;;;;;13.38;8.55;;;22.90;62.90;;;;;;5116004;28;20060;-81
2023/09/12 03:28:56;;;;;;;17.23;9.85;;;22.90;63.50;;;;;;5097137;28;20438;-82
2023/09/12 03:31:22;;;;;;;11.00;8.52;;;22.90;64.10;;;;;;5114266;28;20054;-82
2023/09/12 03:33:50;;;;;;;16.17;10.23;;;22.80;64.40;;;;;;5115848;28;20039;-81
2023/09/12 03:36:17;;;;;;;17.00;10.35;;;22.80;64.70;;;;;;5114840;28;20114;-81
2023/09/12 03:38:43;;;;;;;15.90;9.10;;;22.80;65.20;;;;;;5118025;28;20036;-81
2023/09/12 03:41:09;;;;;;;12.55;10.23;;;22.80;65.20;;;;;;5115810;28;20043;-82
2023/09/12 03:43:34;;;;;;;13.35;10.27;;;22.70;65.50;;;;;;5114690;28;20068;-82
2023/09/12 03:46:00;;;;;;;13.45;9.90;;;22.60;66.00;;;;;;5096043;28;20112;-83
2023/09/12 03:48:26;;;;;;;13.38;9.35;;;22.60;66.10;;;;;;5114531;28;20031;-82
2023/09/12 03:50:51;;;;;;;13.20;9.18;;;22.50;66.40;;;;;;5097094;28;20042;-82
2023/09/12 03:53:17;;;;;;;13.27;9.82;;;22.40;66.60;;;;;;5095813;28;20036;-82
2023/09/12 03:55:43;;;;;;;16.20;9.48;;;22.30;67.00;;;;;;5114024;28;20028;-82
2023/09/12 03:58:09;;;;;;;14.45;10.43;;;22.40;67.20;;;;;;5097502;28;20759;-81
2023/09/12 04:00:35;;;;;;;13.98;9.77;;;22.40;67.00;;;;;;5116453;28;20364;-82
2023/09/12 04:03:00;;;;;;;14.80;10.50;;;22.40;66.90;;;;;;5114430;28;20038;-82
2023/09/12 04:05:26;;;;;;;12.25;9.25;;;22.40;66.60;;;;;;5095848;28;20040;-82
2023/09/12 04:07:52;;;;;;;14.15;9.70;;;22.40;66.50;;;;;;5113799;28;20435;-82
2023/09/12 04:10:22;;;;;;;16.73;10.27;;;22.40;66.40;;;;;;5095727;28;20122;-82
2023/09/12 04:12:48;;;;;;;13.98;10.35;;;22.40;66.10;;;;;;5113951;28;20024;-81
2023/09/12 04:15:13;;;;;;;13.80;9.35;;;22.40;66.40;;;;;;5096359;28;20028;-81
2023/09/12 04:17:39;;;;;;;12.32;9.18;;;22.50;66.60;;;;;;5114177;28;20035;-82
2023/09/12 04:20:06;;;;;;;16.55;10.65;;;22.40;66.60;;;;;;5114539;28;20032;-82
2023/09/12 04:22:31;;;;;;;13.00;10.48;;;22.50;67.20;;;;;;5114037;28;20467;-81
2023/09/12 04:24:57;;;;;;;13.25;9.25;;;22.50;66.30;;;;;;5113754;28;20035;-81
2023/09/12 04:27:23;;;;;;;16.98;10.52;;;22.40;66.40;;;;;;5113607;28;20456;-81
2023/09/12 04:29:48;;;;;;;11.32;9.18;;;22.40;66.50;;;;;;5095263;28;20044;-82
2023/09/12 04:32:16;;;;;;;11.25;8.88;;;22.30;66.40;;;;;;5113417;28;20031;-82
2023/09/12 04:34:44;;;;;;;12.25;9.30;;;22.30;66.60;;;;;;5114342;28;20039;-81
2023/09/12 04:37:10;;;;;;;17.38;9.73;;;22.20;66.50;;;;;;5113664;28;20051;-81
2023/09/12 04:39:36;;;;;;;13.68;9.80;;;22.20;66.40;;;;;;5113178;28;20023;-82
2023/09/12 04:42:03;;;;;;;13.85;9.55;;;22.20;66.50;;;;;;5113010;28;20482;-81
2023/09/12 04:44:29;;;;;;;17.17;10.10;;;22.20;66.40;;;;;;5113449;28;20057;-81
2023/09/12 04:46:55;;;;;;;14.00;10.02;;;22.00;66.60;;;;;;5113123;28;20039;-82
2023/09/12 04:49:21;;;;;;;15.18;9.20;;;22.00;66.60;;;;;;5113108;28;20051;-82
2023/09/12 04:51:46;;;;;;;13.35;9.93;;;22.00;66.80;;;;;;5113733;28;20034;-82
2023/09/12 04:54:12;;;;;;;16.55;9.90;;;22.00;66.60;;;;;;5117024;28;20028;-81
2023/09/12 04:56:38;;;;;;;17.50;9.25;;;21.90;66.50;;;;;;5118038;28;20046;-81
2023/09/12 04:59:04;;;;;;;13.38;8.55;;;21.90;66.30;;;;;;5113945;28;20077;-81
2023/09/12 05:01:29;;;;;;;14.05;9.65;;;21.90;66.20;;;;;;5095120;28;20058;-82
2023/09/12 05:03:55;;;;;;;13.88;9.48;;;22.00;66.10;;;;;;5114129;28;20110;-82
2023/09/12 05:06:21;;;;;;;15.48;9.13;;;22.00;65.80;;;;;;5094500;28;20048;-82
2023/09/12 05:08:46;;;;;;;14.13;9.85;;;21.90;65.70;;;;;;5113178;28;20077;-81
2023/09/12 05:11:12;;;;;;;13.52;9.77;;;21.90;65.60;;;;;;5113106;28;20032;-81
2023/09/12 05:13:38;;;;;;;11.38;8.52;;;21.90;65.60;;;;;;5113193;28;20020;-83
2023/09/12 05:16:04;;;;;;;13.43;9.02;;;21.90;65.60;;;;;;5113683;28;20043;-82
2023/09/12 05:18:30;;;;;;;13.90;9.07;;;22.00;65.00;;;;;;5113318;28;20360;-82
2023/09/12 05:20:55;;;;;;;13.40;9.20;;;22.00;65.10;;;;;;5095443;28;20039;-82
2023/09/12 05:23:21;;;;;;;13.60;9.60;;;22.00;64.60;;;;;;5079515;28;20031;-82
2023/09/12 05:25:47;;;;;;;14.10;9.45;;;22.00;64.50;;;;;;5116116;28;20047;-81
2023/09/12 05:28:15;;;;;;;15.00;9.85;;;22.00;64.50;;;;;;5097320;28;20039;-81
2023/09/12 05:30:42;;;;;;;16.77;9.93;;;22.00;64.40;;;;;;5116640;28;20055;-82
2023/09/12 05:33:08;;;;;;;14.65;9.60;;;22.00;64.40;;;;;;5113370;28;20430;-81
2023/09/12 05:35:34;;;;;;;17.77;9.77;;;22.00;64.30;;;;;;5112723;28;20028;-81
2023/09/12 05:37:59;;;;;;;15.45;9.23;;;22.00;64.30;;;;;;5112540;28;20036;-81
2023/09/12 05:40:25;;;;;;;19.55;9.98;;;21.90;64.50;;;;;;5112491;28;20027;-81
2023/09/12 05:42:51;;;;;;;15.77;9.75;;;22.00;64.70;;;;;;5112375;28;20040;-81
2023/09/12 05:45:16;;;;;;;19.40;9.93;;;22.00;64.40;;;;;;5112344;28;20107;-82
2023/09/12 05:47:42;;;;;;;17.88;10.48;;;22.10;64.50;;;;;;5112216;28;20047;-82
2023/09/12 05:50:08;;;;;;;15.57;9.65;;;22.10;64.50;;;;;;5112418;28;20024;-82
2023/09/12 05:52:34;;;;;;;15.80;10.20;;;22.40;64.10;;;;;;5112321;28;20487;-81
2023/09/12 05:55:00;;;;;;;14.35;9.25;;;22.70;63.90;;;;;;5115037;28;20032;-80
2023/09/12 05:57:25;;;;;;;17.25;9.20;;;23.10;63.40;;;;;;5116598;28;20065;-81
2023/09/12 05:59:51;;;;;;;13.80;8.80;;;23.30;62.40;;;;;;5116643;28;20043;-82
2023/09/12 06:02:17;;;;;;;17.75;9.45;;;23.60;62.30;;;;;;5116584;28;20499;-81
2023/09/12 06:04:43;;;;;;;16.65;9.38;;;23.80;61.80;;;;;;5116673;28;20111;-82
2023/09/12 06:07:09;;;;;;;13.65;8.70;;;23.90;61.30;;;;;;5117051;28;20045;-82
2023/09/12 06:09:35;;;;;;;11.98;8.30;;;24.10;60.70;;;;;;5117021;28;20027;-81
2023/09/12 06:12:02;;;;;;;15.88;8.55;;;24.40;60.50;;;;;;5098723;28;20061;-81
2023/09/12 06:14:27;;;;;;;14.40;9.07;;;24.60;60.00;;;;;;5117817;28;20031;-82
2023/09/12 06:16:53;;;;;;;12.60;9.25;;;24.70;59.50;;;;;;5098029;28;20065;-82
2023/09/12 06:19:19;;;;;;;13.25;8.70;;;25.00;59.00;;;;;;5116391;28;20031;-82
2023/09/12 06:21:45;;;;;;;19.30;8.80;;;25.10;58.40;;;;;;5116566;28;20114;-81
2023/09/12 06:24:20;;;;;;;11.50;8.65;;;25.40;58.00;;;;;;5116721;28;20473;-82
2023/09/12 06:26:47;;;;;;;17.35;9.25;;;25.60;57.40;;;;;;5117649;28;20049;-81
2023/09/12 06:29:14;;;;;;;15.15;8.50;;;25.70;56.90;;;;;;5116073;28;20028;-82
2023/09/12 06:31:41;;;;;;;15.65;9.60;;;25.90;56.70;;;;;;5116332;28;20031;-81
2023/09/12 06:34:07;;;;;;;11.27;8.77;;;26.20;55.90;;;;;;5116029;28;20020;-81
2023/09/12 06:36:33;;;;;;;13.90;8.48;;;26.40;55.60;;;;;;5115711;28;20040;-83
2023/09/12 06:38:59;;;;;;;12.02;8.70;;;26.50;55.30;;;;;;5115840;28;20490;-82
2023/09/12 06:41:26;;;;;;;15.52;8.45;;;26.70;54.60;;;;;;5115796;28;20032;-83
2023/09/12 06:43:52;;;;;;;18.58;8.30;;;26.70;54.30;;;;;;5097830;28;20036;-82
2023/09/12 06:46:18;;;;;;;20.48;8.75;;;26.70;54.30;;;;;;5117036;28;20050;-82
2023/09/12 06:48:44;;;;;;;15.68;8.30;;;26.70;54.00;;;;;;5116419;28;20104;-80
2023/09/12 06:51:11;;;;;;;13.80;7.70;;;26.70;53.70;;;;;;5116433;28;20583;-81
2023/09/12 06:53:37;;;;;;;11.85;7.68;;;26.70;53.80;;;;;;5115981;28;20043;-83
2023/09/12 06:56:04;;;;;;;11.90;7.90;;;26.70;53.50;;;;;;5116994;28;20038;-81
2023/09/12 06:58:29;;;;;;;17.27;9.60;;;26.80;53.40;;;;;;5119547;28;20034;-83
2023/09/12 07:00:55;;;;;;;13.18;8.02;;;27.10;53.20;;;;;;5116519;28;20478;-81
2023/09/12 07:03:21;;;;;;;12.38;7.45;;;27.20;52.80;;;;;;5115468;28;20019;-82
2023/09/12 07:05:48;;;;;;;19.80;7.80;;;27.30;52.60;;;;;;5115048;28;20402;-81
2023/09/12 07:08:14;;;;;;;16.65;8.40;;;27.20;52.70;;;;;;5115713;28;20481;-80
2023/09/12 07:10:46;;;;;;;12.75;7.88;;;27.30;52.40;;;;;;5115431;28;20063;-82
2023/09/12 07:13:12;;;;;;;10.27;7.30;;;27.20;52.50;;;;;;5115652;28;20035;-82
2023/09/12 07:15:38;;;;;;;15.40;7.70;;;27.30;52.60;;;;;;5115381;28;20058;-81
2023/09/12 07:18:06;;;;;;;16.17;7.90;;;27.30;52.20;;;;;;5115259;28;20038;-81
2023/09/12 07:20:32;;;;;;;11.20;6.82;;;27.40;52.20;;;;;;5115854;28;20034;-82
2023/09/12 07:22:58;;;;;;;11.70;7.60;;;27.50;51.90;;;;;;5115500;28;20024;-81
2023/09/12 07:25:23;;;;;;;14.90;7.53;;;27.50;51.70;;;;;;5114754;28;20131;-80
2023/09/12 07:27:50;;;;;;;15.82;7.05;;;27.60;51.50;;;;;;5096729;28;20111;-81
2023/09/12 07:30:16;;;;;;;10.63;7.35;;;27.70;52.00;;;;;;5115196;28;20024;-81
2023/09/12 07:32:41;;;;;;;11.75;7.18;;;27.70;51.20;;;;;;5115884;28;20077;-82
2023/09/12 07:35:07;;;;;;;12.55;6.78;;;27.70;51.00;;;;;;5114874;28;20574;-82
2023/09/12 07:37:33;;;;;;;14.48;7.95;;;27.70;51.20;;;;;;5097180;28;20062;-82
2023/09/12 07:39:59;;;;;;;12.75;7.85;;;27.80;51.40;;;;;;5118059;28;20067;-80
2023/09/12 07:42:25;;;;;;;16.77;7.18;;;27.80;51.20;;;;;;5114978;28;20039;-83
2023/09/12 07:44:50;;;;;;;14.10;7.38;;;27.80;51.30;;;;;;5114497;28;20035;-82
2023/09/12 07:47:16;;;;;;;13.13;7.28;;;27.70;51.10;;;;;;5096150;28;20418;-82
2023/09/12 07:49:42;;;;;;;13.20;7.07;;;27.70;51.20;;;;;;5114508;28;20032;-81
2023/09/12 07:52:08;;;;;;;15.30;6.97;;;27.70;51.20;;;;;;5114460;28;20035;-81
2023/09/12 07:54:34;;;;;;;10.95;7.05;;;27.70;51.20;;;;;;5114318;28;20031;-81
2023/09/12 07:56:59;;;;;;;16.00;7.05;;;27.60;51.10;;;;;;5114242;28;20118;-81
2023/09/12 07:59:25;;;;;;;14.65;7.22;;;27.60;51.20;;;;;;5114143;28;20108;-81
2023/09/12 08:01:51;;;;;;;12.90;6.60;;;27.50;51.10;;;;;;5114917;28;20035;-82
2023/09/12 08:04:17;;;;;;;12.60;7.18;;;27.40;51.20;;;;;;5098050;28;20101;-82
2023/09/12 08:06:43;;;;;;;11.98;6.50;;;27.30;51.40;;;;;;5114252;28;20185;-82
2023/09/12 08:09:10;;;;;;;11.50;7.00;;;27.30;51.50;;;;;;5114128;28;20076;-81
2023/09/12 08:11:36;;;;;;;13.40;6.82;;;27.20;51.60;;;;;;5113940;28;20144;-81
2023/09/12 08:14:02;;;;;;;20.13;10.95;;;27.20;51.80;;;;;;5114474;28;20073;-80
2023/09/12 08:16:27;;;;;;;13.18;8.02;;;27.10;51.80;;;;;;5114811;28;20417;-81
2023/09/12 08:18:53;;;;;;;16.50;7.63;;;27.00;51.80;;;;;;5114378;28;20024;-81
2023/09/12 08:21:19;;;;;;;16.83;7.68;;;27.00;52.10;;;;;;5114442;28;20028;-81
2023/09/12 08:23:45;;;;;;;14.73;7.50;;;26.90;52.10;;;;;;5114156;28;20051;-81
2023/09/12 08:26:11;;;;;;;14.50;6.70;;;26.90;52.30;;;;;;5114302;28;20040;-81
2023/09/12 08:28:37;;;;;;;16.85;7.82;;;26.90;52.40;;;;;;5114623;28;20058;-81
2023/09/12 08:31:02;;;;;;;17.80;6.93;;;26.80;52.60;;;;;;5114094;28;20483;-82
2023/09/12 08:33:28;;;;;;;13.13;6.93;;;26.80;52.50;;;;;;5115710;28;20035;-83
2023/09/12 08:35:54;;;;;;;15.60;8.68;;;26.80;52.50;;;;;;5095914;28;20452;-82
2023/09/12 08:38:20;;;;;;;10.95;7.35;;;26.90;52.60;;;;;;5114648;28;20038;-82
2023/09/12 08:40:52;;;;;;;13.43;6.88;;;26.90;52.70;;;;;;5114215;28;20449;-81
2023/09/12 08:43:19;;;;;;;10.50;6.28;;;26.90;52.60;;;;;;5117310;28;20042;-82
2023/09/12 08:45:46;;;;;;;12.43;6.47;;;26.90;52.30;;;;;;5106648;28;20460;-81
2023/09/12 08:48:12;;;;;;;19.63;7.68;;;26.80;52.30;;;;;;5134473;28;20039;-82
2023/09/12 08:50:38;;;;;;;16.33;6.30;;;26.90;52.40;;;;;;5125530;28;20046;-81
2023/09/12 08:53:05;;;;;;;12.60;6.82;;;26.90;52.20;;;;;;5114821;28;20107;-84
2023/09/12 08:55:38;;;;;;;9.02;6.30;;;27.00;52.00;;;;;;5095790;28;20043;-83
2023/09/12 08:58:05;;;;;;;15.75;7.53;;;26.90;52.00;;;;;;5095384;28;20506;-82
2023/09/12 09:00:31;;;;;;;16.23;10.98;;;26.90;51.70;;;;;;5094938;28;20490;-83
2023/09/12 09:02:58;;;;;;;11.52;6.78;;;26.90;51.60;;;;;;5113579;28;20067;-81
2023/09/12 09:05:25;;;;;;;12.00;6.57;;;26.90;51.50;;;;;;5113701;28;20379;-82
2023/09/12 09:07:51;;;;;;;13.88;6.43;;;26.90;51.50;;;;;;5113473;28;20130;-81
2023/09/12 09:10:18;;;;;;;14.85;6.20;;;26.90;51.40;;;;;;5113716;28;20055;-81
2023/09/12 09:12:46;;;;;;;11.63;6.50;;;27.00;51.20;;;;;;5113198;28;20039;-81
2023/09/12 09:15:27;;;;;;;12.00;6.40;;;27.00;51.20;;;;;;5113840;28;20111;-82
2023/09/12 09:17:55;;;;;;;12.10;6.65;;;27.00;51.00;;;;;;5114054;28;20057;-82
2023/09/12 09:20:32;;;;;;;13.05;6.05;;;27.10;51.00;;;;;;5095083;28;20096;-83
2023/09/12 09:23:06;;;;;;;10.10;6.10;;;27.20;50.80;;;;;;5113350;28;20035;-81
2023/09/12 09:25:39;;;;;;;11.77;6.05;;;27.30;50.20;;;;;;5114001;28;20072;-83
2023/09/12 09:28:06;;;;;;;10.30;6.00;;;27.30;49.50;;;;;;5113812;28;20063;-82
2023/09/12 09:30:45;;;;;;;10.98;6.00;;;27.40;49.40;;;;;;5113493;28;20023;-81
2023/09/12 09:33:12;;;;;;;15.07;6.00;;;27.40;49.40;;;;;;5115876;28;20043;-82
2023/09/12 09:35:40;;;;;;;9.32;5.95;;;27.50;49.40;;;;;;5113316;28;20035;-83
2023/09/12 09:38:06;;;;;;;12.27;5.85;;;27.50;49.20;;;;;;5113146;28;20055;-83
2023/09/12 09:40:33;;;;;;;9.13;6.15;;;27.60;49.50;;;;;;5113208;28;20499;-82
2023/09/12 09:43:00;;;;;;;10.63;5.65;;;27.60;49.50;;;;;;5113232;28;20032;-82
2023/09/12 09:45:27;;;;;;;12.25;5.97;;;27.70;49.40;;;;;;5113905;28;20032;-83
2023/09/12 09:47:58;;;;;;;9.27;6.43;;;27.80;49.30;;;;;;5113131;28;20028;-82
2023/09/12 09:50:24;;;;;;;9.52;5.72;;;27.80;48.80;;;;;;5112887;28;20030;-83
2023/09/12 09:52:57;;;;;;;13.18;6.15;;;27.90;49.00;;;;;;5112519;28;20036;-82
2023/09/12 09:55:23;;;;;;;12.02;5.72;;;27.90;47.60;;;;;;5113005;28;20425;-82
2023/09/12 09:57:52;;;;;;;8.57;5.40;;;28.00;48.50;;;;;;5112605;28;20081;-83
2023/09/12 10:00:20;;;;;;;11.82;5.72;;;28.00;48.20;;;;;;5113515;28;20055;-83
2023/09/12 10:02:49;;;;;;;13.52;5.82;;;28.10;48.00;;;;;;5116012;28;20031;-82
2023/09/12 10:05:17;;;;;;;13.50;5.97;;;28.20;47.80;;;;;;5123430;28;20387;-83
2023/09/12 10:07:52;;;;;;;11.75;5.32;;;28.30;47.50;;;;;;5120085;28;20051;-82
2023/09/12 10:10:21;;;;;;;10.23;5.65;;;28.40;47.30;;;;;;5116539;28;20035;-83
2023/09/12 10:12:53;;;;;;;12.25;5.45;;;28.50;47.10;;;;;;5113198;28;20035;-83
2023/09/12 10:15:20;;;;;;;7.50;5.57;;;28.60;46.90;;;;;;5094313;28;20036;-82
2023/09/12 10:17:50;;;;;;;9.80;5.43;;;28.60;46.30;;;;;;5113005;28;20028;-83
2023/09/12 10:20:20;;;;;;;9.10;5.88;;;28.70;46.40;;;;;;5112925;28;20032;-82
2023/09/12 10:23:24;;;;;;;10.90;5.95;;;28.70;46.20;;;;;;5094260;28;20042;-83
2023/09/12 10:25:50;;;;;;;9.80;5.32;;;28.80;45.00;;;;;;5108364;28;20413;-83
2023/09/12 10:28:19;;;;;;;7.80;5.75;;;28.90;46.30;;;;;;5112678;28;20096;-82
2023/09/12 10:30:46;;;;;;;8.63;5.40;;;29.00;46.20;;;;;;5112456;28;20174;-82
2023/09/12 10:33:13;;;;;;;8.13;5.68;;;29.00;46.20;;;;;;5112980;28;20028;-83
2023/09/12 10:35:39;;;;;;;11.95;5.70;;;29.00;46.20;;;;;;5094254;28;20050;-83
2023/09/12 10:38:07;;;;;;;12.07;5.63;;;29.10;46.30;;;;;;5093575;28;20035;-81
2023/09/12 10:40:36;;;;;;;10.07;5.93;;;29.10;46.00;;;;;;5114584;28;20032;-83
2023/09/12 10:43:05;;;;;;;10.82;5.90;;;29.20;46.20;;;;;;5115775;28;20031;-83
2023/09/12 10:45:36;;;;;;;10.73;5.88;;;29.20;45.70;;;;;;5116041;28;20048;-83
2023/09/12 10:48:02;;;;;;;12.00;6.22;;;29.30;45.90;;;;;;5115968;28;20032;-83
2023/09/12 10:50:29;;;;;;;7.95;5.40;;;29.40;45.60;;;;;;5115888;28;20032;-81
2023/09/12 10:52:54;;;;;;;8.77;5.85;;;29.40;45.70;;;;;;5116192;28;20448;-83
2023/09/12 10:55:20;;;;;;;16.05;5.82;;;29.50;45.50;;;;;;5097381;28;20102;-83
2023/09/12 10:58:05;;;;;;;15.25;6.40;;;29.60;45.30;;;;;;5115623;28;20036;-83
2023/09/12 11:00:32;;;;;;;8.45;5.80;;;29.60;45.20;;;;;;5115785;28;20051;-82
2023/09/12 11:03:02;;;;;;;15.23;7.63;;;29.60;45.30;;;;;;5115672;28;20104;-82
2023/09/12 11:05:27;;;;;;;9.60;5.88;;;29.70;45.50;;;;;;5115455;28;20401;-84
2023/09/12 11:08:01;;;;;;;15.20;6.05;;;29.80;45.30;;;;;;5115126;28;20081;-81
2023/09/12 11:10:27;;;;;;;;;;;29.90;45.30;;;;;;5118956;28;20031;-82
2023/09/12 11:12:54;;;;;;;16.20;5.93;;;29.90;45.30;;;;;;5117288;28;20371;-83
2023/09/12 11:15:25;;;;;;;12.10;6.53;;;30.00;45.50;;;;;;5115489;28;20128;-83
2023/09/12 11:18:04;;;;;;;12.32;6.03;;;30.10;45.60;;;;;;5115530;28;20050;-83
2023/09/12 11:20:58;;;;;;;10.40;6.35;;;30.20;44.10;;;;;;5115525;28;20039;-82
2023/09/12 11:23:25;;;;;;;10.85;6.68;;;30.30;43.40;;;;;;5115000;28;20035;-83
2023/09/12 11:26:13;;;;;;;15.18;11.13;;;30.40;43.90;;;;;;5115135;28;20031;-83
2023/09/12 11:28:39;;;;;;;9.68;5.60;;;30.50;43.20;;;;;;5115135;28;20028;-83
2023/09/12 11:31:06;;;;;;;7.20;5.43;;;30.50;43.10;;;;;;5115206;28;20088;-82
2023/09/12 11:33:32;;;;;;;9.80;5.63;;;30.60;43.10;;;;;;5115277;28;20030;-83
2023/09/12 11:36:00;;;;;;;8.43;5.18;;;30.60;42.80;;;;;;5114802;28;20165;-82
2023/09/12 11:38:28;;;;;;;8.02;5.15;;;30.60;42.80;;;;;;5114770;28;20409;-83
2023/09/12 11:40:55;;;;;;;11.38;5.60;;;30.60;42.80;;;;;;5114937;28;20063;-82
2023/09/12 11:43:25;;;;;;;8.15;5.97;;;30.70;42.90;;;;;;5096775;28;20421;-83
2023/09/12 11:45:53;;;;;;;8.82;5.03;;;30.80;42.90;;;;;;5124034;28;20407;-83
2023/09/12 11:48:19;;;;;;;9.57;5.63;;;30.90;42.50;;;;;;5115106;28;20032;-81
2023/09/12 11:50:55;;;;;;;14.18;5.03;;;30.90;42.00;;;;;;5114799;28;20487;-79
2023/09/12 11:53:25;;;;;;;7.22;4.68;;;31.00;41.40;;;;;;5116248;28;20088;-83
2023/09/12 11:55:56;;;;;;;7.43;4.72;;;31.00;41.40;;;;;;5117389;28;20675;-83
2023/09/12 11:58:22;;;;;;;8.60;4.80;;;31.00;41.50;;;;;;5132936;28;20035;-81
2023/09/12 12:00:56;;;;;;;7.63;4.50;;;31.10;41.50;;;;;;5128306;28;20126;-82
2023/09/12 12:03:26;;;;;;;9.02;4.35;;;31.10;40.60;;;;;;5096591;28;20035;-82
2023/09/12 12:05:54;;;;;;;8.77;4.85;;;31.20;41.30;;;;;;5114885;28;20055;-81
2023/09/12 12:08:20;;;;;;;8.07;4.75;;;31.20;40.90;;;;;;5114236;28;20032;-83
2023/09/12 12:10:53;;;;;;;7.28;4.70;;;31.40;40.60;;;;;;5114036;28;20035;-82
2023/09/12 12:13:20;;;;;;;7.57;4.65;;;31.40;40.30;;;;;;5114346;28;20028;-82
2023/09/12 12:15:46;;;;;;;7.20;4.50;;;31.40;40.00;;;;;;5095622;28;20043;-82
2023/09/12 12:18:12;;;;;;;6.88;4.88;;;31.50;39.90;;;;;;5114046;28;20356;-84
2023/09/12 12:20:38;;;;;;;7.82;4.75;;;31.50;39.60;;;;;;5114307;28;20092;-80
2023/09/12 12:23:04;;;;;;;7.30;4.47;;;31.50;39.40;;;;;;5095956;28;20035;-83
2023/09/12 12:25:34;;;;;;;6.75;4.80;;;31.60;39.20;;;;;;5117243;28;20058;-82
2023/09/12 12:28:01;;;;;;;6.75;4.40;;;31.60;38.90;;;;;;5115771;28;20062;-82
2023/09/12 12:30:32;;;;;;;9.30;4.50;;;31.60;38.80;;;;;;5113746;28;20383;-82
2023/09/12 12:33:00;;;;;;;6.93;4.43;;;31.60;38.50;;;;;;5113841;28;20058;-83
2023/09/12 12:35:26;;;;;;;6.90;4.50;;;31.60;38.60;;;;;;5114421;28;20036;-83
2023/09/12 12:37:55;;;;;;;5.85;4.57;;;31.70;38.70;;;;;;5114003;28;20447;-81